CheckWX is a tool to help pilots better visualize weather data.  It is not intended as a substitute for an official pre-flight weather briefing.

03:03:53 UTC

KCIR METAR
Cairo Regional Airport
Cairo, Illinois, USA
Current

29 mins ago

KCIR 230235Z AUTO 17005KT 10SM BKN075 25/20 A3000 RMK AO2 T02500196
Observed
Sep-23 @ 02:35 UTC
Wind
  • 170° at 5 KTS
Visibility
10 SM
Flight Rules
VFR
Cloud Levels
  • Broken at 7,500' AGL
Temperature
25°C / 77°F
Dewpoint
20°C / 68°F
Humidity
74%
Altimeter
30" Hg
Pressure
1015.92 hPa
Previous

49 mins ago

KCIR 230215Z AUTO 17004KT 10SM OVC075 26/20 A3000 RMK AO2 T02550196
Observed
Sep-23 @ 02:15 UTC
Wind
  • 170° at 4 KTS
Visibility
10 SM
Flight Rules
VFR
Cloud Levels
  • Overcast at 7,500' AGL
Temperature
26°C / 79°F
Dewpoint
20°C / 68°F
Humidity
70%
Altimeter
30" Hg
Pressure
1015.92 hPa
Previous

1 hour ago

KCIR 230155Z AUTO 19005KT 10SM BKN075 26/20 A2999 RMK AO2 T02580195
Observed
Sep-23 @ 01:55 UTC
Wind
  • 190° at 5 KTS
Visibility
10 SM
Flight Rules
VFR
Cloud Levels
  • Broken at 7,500' AGL
Temperature
26°C / 79°F
Dewpoint
20°C / 68°F
Humidity
70%
Altimeter
29.99" Hg
Pressure
1015.62 hPa